Terminal Aerodrome Forecast
Issued by NWS Louisville, KY

Home | Current Version | Previous Version | Text Only | Print | Product List | Glossary On
Versions: 1 2 3 4 5 6 7 8 9 10 11 12 13 14 15 16 17 18 19 20
591
FTUS43 KLMK 111120
TAFSDF
TAF
KSDF 111120Z 1112/1218 35005KT P6SM SCT020 OVC070
     FM111700 35004KT P6SM SCT070 BKN250
     FM120000 02004KT P6SM OVC100
     FM121200 VRB03KT 5SM -SN BR BKN035=

USA.gov is the U.S. government's official web portal to all federal, state and local government web resources and services.